Time;durP1;ratioP1;P1;durP2;ratioP2;P2;SDS_P1;SDS_P2;PMS_P1;PMS_P2;Temp;Humidity;BMP_temperature;BMP_pressure;BME280_temperature;BME280_humidity;BME280_pressure;Samples;Min_cycle;Max_cycle;Signal;HPM_P1;HPM_P2
2022/10/09 00:01:22;;;;;;;3.30;2.00;;;20.20;47.90;;;;;;5136082;28;20047;-11
2022/10/09 00:03:49;;;;;;;2.67;1.77;;;20.20;48.00;;;;;;5136216;28;20067;-11
2022/10/09 00:06:19;;;;;;;2.33;1.65;;;20.20;48.00;;;;;;5136157;28;20051;-11
2022/10/09 00:08:45;;;;;;;3.65;1.90;;;20.10;47.90;;;;;;5136005;28;20123;-11
2022/10/09 00:11:14;;;;;;;3.33;2.30;;;20.20;48.00;;;;;;5136304;28;20150;-11
2022/10/09 00:13:40;;;;;;;4.65;2.40;;;20.20;48.00;;;;;;5136433;28;20444;-11
2022/10/09 00:16:09;;;;;;;3.50;1.83;;;20.20;48.00;;;;;;5135920;28;20039;-11
2022/10/09 00:18:35;;;;;;;4.53;2.30;;;20.20;48.00;;;;;;5135823;28;20054;-11
2022/10/09 00:21:01;;;;;;;2.78;2.05;;;20.20;48.00;;;;;;5135724;28;20043;-11
2022/10/09 00:23:27;;;;;;;2.83;1.90;;;20.20;48.00;;;;;;5135725;28;20174;-11
2022/10/09 00:25:56;;;;;;;3.05;2.03;;;20.20;48.00;;;;;;5136315;28;20050;-11
2022/10/09 00:28:23;;;;;;;2.72;2.00;;;20.20;48.00;;;;;;5135465;28;20505;-11
2022/10/09 00:30:49;;;;;;;3.65;2.03;;;20.20;48.00;;;;;;5135610;28;20062;-11
2022/10/09 00:33:14;;;;;;;2.83;1.90;;;20.20;48.00;;;;;;5135645;28;20047;-11
2022/10/09 00:35:40;;;;;;;2.92;2.03;;;20.20;48.00;;;;;;5135653;28;20073;-11
2022/10/09 00:38:07;;;;;;;2.85;1.95;;;20.20;48.00;;;;;;5135545;28;20496;-11
2022/10/09 00:40:33;;;;;;;2.58;1.88;;;20.20;48.00;;;;;;5135508;28;20055;-11
2022/10/09 00:42:59;;;;;;;3.25;2.17;;;20.10;48.00;;;;;;5135433;28;20084;-11
2022/10/09 00:45:25;;;;;;;2.47;1.73;;;20.10;48.00;;;;;;5135726;28;20082;-11
2022/10/09 00:48:02;;;;;;;3.33;1.98;;;20.20;48.60;;;;;;5135715;28;20055;-11
2022/10/09 00:50:43;;;;;;;2.60;2.03;;;20.10;48.00;;;;;;5135689;28;20390;-11
2022/10/09 00:53:14;;;;;;;3.65;2.28;;;20.20;48.00;;;;;;5135368;28;20138;-11
2022/10/09 00:55:40;;;;;;;2.97;2.08;;;20.20;48.00;;;;;;5134597;27;20050;-11
2022/10/09 00:58:07;;;;;;;3.17;1.95;;;20.10;48.00;;;;;;5135336;28;20510;-10
2022/10/09 01:00:32;;;;;;;2.70;2.30;;;20.10;48.00;;;;;;5135541;28;20043;-11
2022/10/09 01:02:58;;;;;;;2.80;2.08;;;20.10;48.00;;;;;;5135572;28;20054;-11
2022/10/09 01:05:33;;;;;;;2.72;2.10;;;20.10;48.00;;;;;;5135461;28;20510;-11
2022/10/09 01:08:08;;;;;;;2.90;1.77;;;20.10;48.00;;;;;;5135071;28;20517;-11
2022/10/09 01:10:52;;;;;;;3.13;2.58;;;20.20;48.00;;;;;;5135086;28;20066;-11
2022/10/09 01:13:28;;;;;;;3.00;1.90;;;20.10;47.90;;;;;;5135408;28;20055;-11
2022/10/09 01:15:57;;;;;;;3.45;2.30;;;20.10;48.00;;;;;;5134958;28;20055;-11
2022/10/09 01:18:45;;;;;;;3.35;1.90;;;20.10;48.00;;;;;;5134933;28;20070;-11
2022/10/09 01:21:17;;;;;;;3.60;2.22;;;20.10;48.00;;;;;;5134654;28;20066;-11
2022/10/09 01:24:04;;;;;;;2.20;1.75;;;20.10;48.00;;;;;;5134829;28;20051;-11
2022/10/09 01:26:33;;;;;;;2.60;2.17;;;20.10;48.00;;;;;;5134653;28;20051;-11
2022/10/09 01:29:05;;;;;;;3.33;2.45;;;20.10;48.00;;;;;;5134596;28;20051;-11
2022/10/09 01:31:36;;;;;;;3.83;2.72;;;20.10;48.00;;;;;;5134520;28;20054;-11
2022/10/09 01:34:02;;;;;;;2.90;2.13;;;20.10;48.10;;;;;;5134829;28;20058;-11
2022/10/09 01:36:29;;;;;;;3.97;2.40;;;20.10;48.00;;;;;;5135044;28;20312;-11
2022/10/09 01:39:01;;;;;;;3.38;2.55;;;20.10;48.00;;;;;;5134942;28;20059;-11
2022/10/09 01:41:27;;;;;;;3.50;2.40;;;20.10;48.00;;;;;;5134826;28;20043;-11
2022/10/09 01:43:52;;;;;;;3.63;2.30;;;20.10;48.00;;;;;;5135079;28;20142;-11
2022/10/09 01:46:30;;;;;;;2.88;2.17;;;20.10;48.00;;;;;;5134526;28;20487;-11
2022/10/09 01:49:33;;;;;;;3.42;2.10;;;20.10;48.00;;;;;;5134959;28;20143;-11
2022/10/09 01:52:26;;;;;;;4.40;2.40;;;20.10;48.10;;;;;;5134858;28;20047;-11
2022/10/09 01:54:59;;;;;;;2.67;2.08;;;20.10;48.10;;;;;;5134568;28;20146;-11
2022/10/09 01:57:46;;;;;;;3.80;2.30;;;20.10;48.10;;;;;;5134946;28;20050;-11
2022/10/09 02:00:13;;;;;;;3.75;2.28;;;20.10;48.00;;;;;;5134275;28;20059;-10
2022/10/09 02:02:40;;;;;;;3.72;2.60;;;20.10;48.00;;;;;;5134133;28;20070;-11
2022/10/09 02:05:09;;;;;;;2.75;1.88;;;20.10;48.00;;;;;;5134307;28;20123;-11
2022/10/09 02:07:35;;;;;;;2.88;1.90;;;20.10;48.10;;;;;;5133914;27;20051;-11
2022/10/09 02:10:02;;;;;;;4.07;2.10;;;20.10;48.10;;;;;;5134125;28;20047;-11
2022/10/09 02:12:31;;;;;;;2.47;1.98;;;20.10;48.10;;;;;;5134382;28;20100;-11
2022/10/09 02:14:57;;;;;;;3.25;2.15;;;20.10;48.10;;;;;;5134631;28;20047;-11
2022/10/09 02:17:28;;;;;;;3.60;2.25;;;20.10;48.10;;;;;;5133876;28;20417;-11
2022/10/09 02:20:02;;;;;;;4.03;2.35;;;20.10;48.10;;;;;;5133853;28;20130;-11
2022/10/09 02:22:30;;;;;;;4.50;2.65;;;20.10;48.10;;;;;;5133833;28;20502;-11
2022/10/09 02:24:58;;;;;;;2.88;2.30;;;20.10;48.10;;;;;;5133893;28;20054;-11
2022/10/09 02:27:25;;;;;;;3.03;2.30;;;20.10;48.10;;;;;;5133872;28;20047;-11
2022/10/09 02:29:52;;;;;;;4.50;2.80;;;20.10;48.00;;;;;;5133671;28;20051;-11
2022/10/09 02:32:17;;;;;;;3.08;2.10;;;20.10;48.00;;;;;;5134037;28;20104;-11
2022/10/09 02:34:43;;;;;;;3.88;2.30;;;20.10;48.10;;;;;;5133806;28;20533;-11
2022/10/09 02:37:09;;;;;;;2.90;2.00;;;20.10;48.60;;;;;;5134124;28;20055;-11
2022/10/09 02:39:35;;;;;;;3.38;2.35;;;20.10;48.10;;;;;;5133583;28;20046;-11
2022/10/09 02:42:01;;;;;;;2.47;2.00;;;20.00;48.10;;;;;;5133887;28;20039;-11
2022/10/09 02:44:26;;;;;;;3.83;2.42;;;20.00;48.00;;;;;;5133633;28;20051;-11
2022/10/09 02:46:52;;;;;;;2.22;1.80;;;20.10;48.10;;;;;;5133948;28;20043;-11
2022/10/09 02:49:18;;;;;;;3.00;2.45;;;20.00;48.00;;;;;;5133462;28;20095;-11
2022/10/09 02:51:44;;;;;;;3.35;2.22;;;20.10;48.10;;;;;;5133447;28;20058;-11
2022/10/09 02:54:09;;;;;;;3.65;2.42;;;20.10;48.10;;;;;;5133688;28;20160;-11
2022/10/09 02:56:35;;;;;;;4.70;2.20;;;20.00;48.00;;;;;;5133630;28;20690;-11
2022/10/09 02:59:01;;;;;;;3.17;2.08;;;20.00;48.00;;;;;;5133305;28;20066;-11
2022/10/09 03:01:27;;;;;;;3.60;2.17;;;20.00;48.00;;;;;;5133844;28;20059;-11
2022/10/09 03:03:52;;;;;;;2.53;2.05;;;20.00;48.10;;;;;;5133394;28;20596;-11
2022/10/09 03:06:21;;;;;;;3.65;2.42;;;20.00;48.10;;;;;;5133393;28;20059;-11
2022/10/09 03:08:48;;;;;;;2.92;1.95;;;20.00;48.10;;;;;;5133478;28;20543;-10
2022/10/09 03:11:16;;;;;;;3.40;2.20;;;20.00;48.20;;;;;;5133327;28;20503;-11
2022/10/09 03:13:42;;;;;;;2.90;2.03;;;20.00;48.20;;;;;;5133413;28;20130;-11
2022/10/09 03:16:11;;;;;;;4.32;2.60;;;20.00;48.10;;;;;;5133277;28;20398;-11
2022/10/09 03:18:37;;;;;;;2.90;2.33;;;20.00;48.10;;;;;;5134618;27;20089;-11
2022/10/09 03:21:08;;;;;;;3.25;2.17;;;20.00;48.10;;;;;;5136614;28;20089;-11
2022/10/09 03:23:33;;;;;;;3.00;2.25;;;20.00;48.10;;;;;;5136843;28;20055;-11
2022/10/09 03:26:03;;;;;;;3.30;2.50;;;20.00;48.20;;;;;;5136764;28;20547;-11
2022/10/09 03:28:29;;;;;;;3.20;2.25;;;20.00;48.10;;;;;;5136692;28;20057;-11
2022/10/09 03:30:55;;;;;;;4.03;2.30;;;20.00;48.10;;;;;;5136710;28;20558;-11
2022/10/09 03:33:21;;;;;;;3.60;2.20;;;20.00;48.10;;;;;;5136918;28;20047;-11
2022/10/09 03:35:48;;;;;;;2.63;1.95;;;20.00;48.10;;;;;;5136457;28;20095;-11
2022/10/09 03:38:15;;;;;;;2.25;2.00;;;20.10;48.10;;;;;;5136491;28;20154;-11
2022/10/09 03:40:40;;;;;;;3.08;2.13;;;20.00;48.10;;;;;;5136463;28;20058;-11
2022/10/09 03:43:06;;;;;;;2.45;2.20;;;20.00;48.20;;;;;;5136410;28;20039;-11
2022/10/09 03:45:32;;;;;;;3.17;2.10;;;20.00;48.10;;;;;;5136651;28;20054;-11
2022/10/09 03:47:57;;;;;;;2.63;2.08;;;20.00;48.20;;;;;;5136975;28;20084;-11
2022/10/09 03:50:23;;;;;;;3.58;2.20;;;20.00;48.30;;;;;;5136274;28;20055;-11
2022/10/09 03:52:48;;;;;;;3.75;2.22;;;19.90;48.30;;;;;;5136611;28;20080;-11
2022/10/09 03:55:14;;;;;;;3.50;1.85;;;20.00;48.40;;;;;;5136157;28;20062;-11
2022/10/09 03:57:40;;;;;;;2.65;2.15;;;20.00;48.30;;;;;;5136808;28;20082;-11
2022/10/09 04:00:06;;;;;;;2.83;2.22;;;20.00;48.20;;;;;;5136177;28;20613;-11
2022/10/09 04:02:33;;;;;;;3.75;2.22;;;20.00;48.20;;;;;;5135886;28;20055;-11
2022/10/09 04:04:58;;;;;;;3.30;1.98;;;20.00;48.20;;;;;;5136139;28;20546;-11
2022/10/09 04:07:24;;;;;;;2.05;1.77;;;20.00;48.20;;;;;;5136104;28;20051;-11
2022/10/09 04:09:49;;;;;;;2.83;2.20;;;20.00;48.20;;;;;;5136095;28;20057;-11
2022/10/09 04:12:15;;;;;;;3.50;2.20;;;20.00;48.20;;;;;;5136535;28;20081;-11
2022/10/09 04:14:41;;;;;;;2.83;2.03;;;20.00;48.20;;;;;;5136355;28;20047;-11
2022/10/09 04:17:07;;;;;;;4.10;2.33;;;20.00;48.20;;;;;;5135882;28;20543;-11
2022/10/09 04:19:32;;;;;;;2.60;2.05;;;20.00;48.20;;;;;;5135705;28;20055;-11
2022/10/09 04:21:58;;;;;;;3.17;1.85;;;20.00;48.30;;;;;;5135962;28;20073;-11
2022/10/09 04:24:24;;;;;;;2.03;1.83;;;20.00;48.20;;;;;;5135915;28;20051;-11
2022/10/09 04:26:50;;;;;;;4.50;2.20;;;20.00;48.30;;;;;;5136070;28;20043;-11
2022/10/09 04:29:15;;;;;;;3.95;2.47;;;20.00;48.20;;;;;;5135339;27;20063;-11
2022/10/09 04:31:41;;;;;;;3.05;2.10;;;20.00;48.20;;;;;;5135811;28;20051;-11
2022/10/09 04:34:06;;;;;;;3.03;2.20;;;20.00;48.20;;;;;;5135901;28;20087;-11
2022/10/09 04:36:32;;;;;;;2.85;2.08;;;20.00;48.20;;;;;;5135762;28;20055;-11
2022/10/09 04:38:57;;;;;;;2.70;2.10;;;19.90;48.20;;;;;;5135248;28;20055;-11
2022/10/09 04:41:23;;;;;;;3.20;2.13;;;20.00;48.20;;;;;;5135800;28;20543;-11
2022/10/09 04:43:54;;;;;;;3.13;1.92;;;20.00;48.30;;;;;;5135529;28;20050;-11
2022/10/09 04:46:19;;;;;;;2.50;1.85;;;20.00;48.30;;;;;;5135541;28;20047;-11
2022/10/09 04:48:46;;;;;;;2.50;1.95;;;20.00;48.20;;;;;;5135120;28;20091;-11
2022/10/09 04:51:12;;;;;;;2.70;1.90;;;20.00;48.30;;;;;;5135649;28;20053;-11
2022/10/09 04:53:39;;;;;;;3.72;2.28;;;20.00;48.20;;;;;;5135375;28;20621;-11
2022/10/09 04:56:07;;;;;;;3.40;2.00;;;20.00;48.20;;;;;;5135255;28;20057;-11
2022/10/09 04:58:35;;;;;;;3.63;2.03;;;20.00;48.30;;;;;;5135223;28;20103;-10
2022/10/09 05:01:09;;;;;;;2.00;1.63;;;20.00;48.20;;;;;;5135478;28;20451;-11
2022/10/09 05:03:35;;;;;;;3.65;2.38;;;20.00;48.20;;;;;;5135474;28;20444;-11
2022/10/09 05:06:07;;;;;;;2.45;2.08;;;20.00;48.20;;;;;;5135071;28;20047;-11
2022/10/09 05:08:33;;;;;;;2.60;1.98;;;20.00;48.20;;;;;;5135024;28;20051;-11
2022/10/09 05:11:00;;;;;;;3.03;2.10;;;20.00;48.20;;;;;;5135343;28;20091;-11
2022/10/09 05:13:31;;;;;;;4.50;2.42;;;19.90;48.20;;;;;;5134919;28;20054;-11
2022/10/09 05:16:05;;;;;;;3.38;2.15;;;20.00;48.30;;;;;;5134970;28;20055;-11
2022/10/09 05:18:32;;;;;;;3.38;2.10;;;20.00;48.30;;;;;;5135229;28;20091;-11
2022/10/09 05:20:58;;;;;;;2.58;1.88;;;20.00;48.20;;;;;;5134829;28;20059;-11
2022/10/09 05:23:24;;;;;;;3.47;2.33;;;20.00;48.20;;;;;;5134797;28;20043;-11
2022/10/09 05:25:57;;;;;;;3.03;2.00;;;19.90;48.20;;;;;;5134730;28;20057;-11
2022/10/09 05:28:23;;;;;;;3.10;2.08;;;20.00;48.20;;;;;;5134701;28;20078;-11
2022/10/09 05:30:49;;;;;;;2.65;1.80;;;19.90;48.20;;;;;;5134954;28;20483;-11
2022/10/09 05:33:14;;;;;;;2.50;1.90;;;19.90;48.20;;;;;;5134655;28;20050;-11
2022/10/09 05:35:40;;;;;;;3.17;2.42;;;19.90;48.20;;;;;;5135136;28;20058;-11
2022/10/09 05:38:06;;;;;;;3.72;2.30;;;19.90;48.30;;;;;;5135184;28;20051;-11
2022/10/09 05:40:31;;;;;;;3.20;1.90;;;19.90;48.30;;;;;;5134794;27;20070;-11
2022/10/09 05:42:57;;;;;;;3.70;2.33;;;19.90;48.20;;;;;;5134301;28;20043;-11
2022/10/09 05:45:22;;;;;;;3.65;2.33;;;19.90;48.20;;;;;;5134465;28;20099;-11
2022/10/09 05:47:48;;;;;;;2.33;1.70;;;19.90;48.20;;;;;;5134720;28;20474;-11
2022/10/09 05:50:13;;;;;;;2.30;1.80;;;19.90;48.30;;;;;;5134336;28;20381;-11
2022/10/09 05:52:39;;;;;;;3.03;2.20;;;19.90;48.30;;;;;;5134358;28;20047;-11
2022/10/09 05:55:05;;;;;;;2.85;2.00;;;19.90;48.30;;;;;;5134351;28;20055;-11
2022/10/09 05:57:31;;;;;;;2.28;1.90;;;19.90;48.30;;;;;;5134213;28;20217;-11
2022/10/09 05:59:57;;;;;;;3.58;2.22;;;19.90;48.30;;;;;;5134298;28;20058;-11
2022/10/09 06:02:23;;;;;;;2.55;2.20;;;19.90;48.30;;;;;;5134219;28;20043;-11
2022/10/09 06:04:48;;;;;;;2.97;2.20;;;19.90;48.20;;;;;;5134184;28;20108;-11
2022/10/09 06:07:14;;;;;;;2.78;2.17;;;20.00;48.20;;;;;;5133982;28;20100;-11
2022/10/09 06:09:40;;;;;;;2.33;1.95;;;20.00;48.10;;;;;;5133989;28;20053;-10
2022/10/09 06:12:06;;;;;;;2.55;2.00;;;20.00;47.90;;;;;;5134085;28;20043;-11
2022/10/09 06:14:32;;;;;;;2.38;1.70;;;20.10;47.80;;;;;;5134351;28;20073;-11
2022/10/09 06:16:58;;;;;;;2.55;1.75;;;20.20;47.70;;;;;;5134045;28;20546;-11
2022/10/09 06:19:25;;;;;;;3.03;2.00;;;20.20;47.70;;;;;;5134285;28;20071;-11
2022/10/09 06:21:50;;;;;;;2.67;1.70;;;20.20;47.70;;;;;;5133794;28;20046;-11
2022/10/09 06:24:18;;;;;;;2.78;2.00;;;20.20;47.60;;;;;;5133815;28;20051;-11
2022/10/09 06:26:43;;;;;;;2.13;1.80;;;20.20;47.60;;;;;;5133811;28;20130;-11
2022/10/09 06:29:09;;;;;;;4.00;2.35;;;20.30;47.50;;;;;;5134221;28;20097;-11
2022/10/09 06:31:34;;;;;;;2.53;1.90;;;20.30;47.50;;;;;;5133637;28;20058;-11
2022/10/09 06:34:02;;;;;;;2.45;1.80;;;20.30;47.40;;;;;;5134013;28;20107;-11
2022/10/09 06:36:30;;;;;;;2.90;1.92;;;20.30;47.30;;;;;;5133631;28;20051;-11
2022/10/09 06:38:59;;;;;;;3.05;2.13;;;20.40;47.20;;;;;;5133552;28;20058;-11
2022/10/09 06:41:26;;;;;;;3.55;1.85;;;20.40;47.10;;;;;;5133723;28;20047;-11
2022/10/09 06:43:54;;;;;;;2.80;1.90;;;20.50;47.10;;;;;;5133589;28;20039;-11
2022/10/09 06:46:22;;;;;;;2.45;1.95;;;20.50;46.90;;;;;;5133654;28;20051;-11
2022/10/09 06:48:48;;;;;;;2.42;1.80;;;20.60;46.80;;;;;;5133673;28;20055;-11
2022/10/09 06:51:16;;;;;;;2.35;1.92;;;20.70;46.60;;;;;;5133491;28;20127;-11
2022/10/09 06:53:50;;;;;;;2.30;1.90;;;20.80;46.50;;;;;;5116913;28;20376;-11
2022/10/09 06:56:17;;;;;;;2.65;1.70;;;20.80;46.40;;;;;;5137580;28;20043;-11
2022/10/09 06:58:43;;;;;;;2.28;1.67;;;20.90;46.40;;;;;;5137250;28;20047;-11
2022/10/09 07:01:17;;;;;;;2.60;1.85;;;20.90;46.20;;;;;;5137210;28;20050;-11
2022/10/09 07:03:46;;;;;;;2.45;1.88;;;21.00;46.00;;;;;;5137117;28;20135;-11
2022/10/09 07:06:20;;;;;;;2.47;1.92;;;21.00;46.00;;;;;;5137107;28;20051;-11
2022/10/09 07:08:50;;;;;;;2.67;1.90;;;21.10;45.90;;;;;;5137264;28;20127;-11
2022/10/09 07:11:20;;;;;;;2.67;2.03;;;21.10;45.80;;;;;;5137339;28;20047;-11
2022/10/09 07:13:46;;;;;;;3.05;2.08;;;21.20;45.60;;;;;;5137235;28;20047;-11
2022/10/09 07:16:12;;;;;;;2.65;1.88;;;21.30;45.50;;;;;;5137489;28;20051;-11
2022/10/09 07:18:38;;;;;;;2.85;1.90;;;21.40;45.10;;;;;;5136860;28;20053;-11
2022/10/09 07:21:06;;;;;;;2.08;1.63;;;21.40;45.40;;;;;;5137065;28;20058;-11
2022/10/09 07:23:33;;;;;;;2.30;1.80;;;21.40;45.20;;;;;;5136632;28;20130;-11
2022/10/09 07:25:59;;;;;;;3.00;2.20;;;21.30;45.20;;;;;;5137073;28;20074;-11
2022/10/09 07:28:27;;;;;;;2.53;1.70;;;21.30;45.30;;;;;;5118137;28;20055;-11
2022/10/09 07:30:52;;;;;;;2.38;1.80;;;21.30;45.40;;;;;;5136600;28;20135;-11
2022/10/09 07:33:18;;;;;;;3.08;1.80;;;21.30;45.40;;;;;;5137176;28;20140;-11
2022/10/09 07:35:55;;;;;;;2.85;1.70;;;21.30;45.30;;;;;;5136895;28;20047;-11
2022/10/09 07:38:21;;;;;;;2.88;1.85;;;21.30;45.30;;;;;;5136503;28;20082;-11
2022/10/09 07:40:47;;;;;;;2.05;1.60;;;21.30;45.40;;;;;;5136421;28;20483;-11
2022/10/09 07:43:12;;;;;;;3.88;2.20;;;21.30;45.40;;;;;;5136435;28;20051;-11
2022/10/09 07:45:38;;;;;;;4.18;2.08;;;21.20;45.30;;;;;;5136537;28;20533;-11
2022/10/09 07:48:03;;;;;;;2.60;1.70;;;21.20;45.30;;;;;;5136647;28;20391;-11
2022/10/09 07:50:29;;;;;;;2.17;1.48;;;21.20;45.50;;;;;;5136341;28;20047;-11
2022/10/09 07:52:54;;;;;;;3.25;2.00;;;21.20;45.60;;;;;;5136409;28;20092;-11
2022/10/09 07:55:20;;;;;;;2.53;1.70;;;21.10;45.60;;;;;;5136584;28;20043;-11
2022/10/09 07:57:46;;;;;;;2.65;1.95;;;21.10;45.70;;;;;;5136444;28;20047;-11
2022/10/09 08:00:12;;;;;;;2.67;2.05;;;21.00;45.80;;;;;;5136555;28;20042;-11
2022/10/09 08:02:38;;;;;;;2.80;1.70;;;21.00;45.80;;;;;;5136135;28;20142;-11
2022/10/09 08:05:04;;;;;;;2.85;1.70;;;21.00;45.80;;;;;;5135550;27;20471;-12
2022/10/09 08:07:29;;;;;;;2.00;1.60;;;21.00;45.90;;;;;;5135910;28;20047;-11
2022/10/09 08:09:55;;;;;;;2.92;1.90;;;21.00;46.00;;;;;;5136104;28;20053;-10
2022/10/09 08:12:20;;;;;;;2.53;1.90;;;20.90;46.10;;;;;;5136359;28;20126;-10
2022/10/09 08:14:47;;;;;;;3.33;1.55;;;20.90;46.10;;;;;;5135955;28;20050;-10
2022/10/09 08:17:14;;;;;;;2.25;1.52;;;20.90;46.20;;;;;;5135955;28;20494;-10
2022/10/09 08:19:40;;;;;;;2.78;1.95;;;20.80;46.30;;;;;;5135863;28;20051;-10
2022/10/09 08:22:06;;;;;;;2.28;1.63;;;20.80;46.30;;;;;;5136338;28;20059;-10
2022/10/09 08:24:31;;;;;;;3.88;2.10;;;20.80;46.30;;;;;;5136042;28;20133;-10
2022/10/09 08:26:57;;;;;;;2.00;1.58;;;20.80;46.40;;;;;;5135935;28;20043;-10
2022/10/09 08:29:23;;;;;;;2.45;1.80;;;20.70;46.50;;;;;;5135715;28;20047;-10
2022/10/09 08:31:48;;;;;;;2.55;2.08;;;20.70;46.50;;;;;;5136147;28;20051;-10
2022/10/09 08:34:14;;;;;;;2.75;1.85;;;20.60;46.60;;;;;;5135548;28;20168;-10
2022/10/09 08:36:40;;;;;;;3.15;2.05;;;20.70;47.20;;;;;;5135805;28;20108;-10
2022/10/09 08:39:05;;;;;;;1.65;1.50;;;20.60;46.60;;;;;;5135534;28;20096;-10
2022/10/09 08:41:45;;;;;;;2.47;1.70;;;20.70;46.70;;;;;;5135884;28;20115;-10
2022/10/09 08:44:27;;;;;;;2.03;1.73;;;20.70;46.60;;;;;;5135967;28;20407;-10
2022/10/09 08:47:13;;;;;;;2.50;1.83;;;20.70;46.70;;;;;;5135325;28;20467;-10
2022/10/09 08:50:15;;;;;;;3.20;2.00;;;20.60;46.80;;;;;;5133265;28;20047;-10
2022/10/09 08:53:01;;;;;;;2.30;1.90;;;20.60;46.80;;;;;;5135937;28;20050;-10
2022/10/09 08:55:49;;;;;;;2.45;1.50;;;20.60;46.90;;;;;;5135327;28;20505;-10
2022/10/09 08:58:19;;;;;;;2.47;1.75;;;20.60;46.80;;;;;;5134910;28;20116;-10
2022/10/09 09:00:53;;;;;;;1.87;1.40;;;20.50;46.80;;;;;;5135503;28;20456;-10
2022/10/09 09:03:33;;;;;;;2.35;1.60;;;20.50;46.90;;;;;;5135079;28;20086;-10
2022/10/09 09:06:21;;;;;;;1.45;1.27;;;20.50;46.90;;;;;;5135110;28;20054;-10
2022/10/09 09:09:04;;;;;;;1.88;1.48;;;20.50;46.80;;;;;;5134992;28;20053;-10
2022/10/09 09:11:53;;;;;;;2.53;1.63;;;20.50;46.80;;;;;;5134835;28;20051;-10
2022/10/09 09:14:28;;;;;;;2.75;1.90;;;20.50;46.90;;;;;;5134722;28;20054;-10
2022/10/09 09:17:13;;;;;;;1.83;1.67;;;20.50;46.90;;;;;;5133782;27;20059;-10
2022/10/09 09:20:08;;;;;;;2.22;1.77;;;20.50;47.00;;;;;;5135188;28;20054;-10
2022/10/09 09:22:36;;;;;;;1.95;1.70;;;20.50;47.00;;;;;;5134828;28;20042;-10
2022/10/09 09:25:23;;;;;;;4.53;2.00;;;20.50;47.00;;;;;;5134942;28;20399;-10
2022/10/09 09:27:56;;;;;;;1.65;1.55;;;20.50;47.00;;;;;;5134620;28;20051;-10
2022/10/09 09:30:33;;;;;;;3.08;1.75;;;20.50;47.10;;;;;;5134761;28;20138;-10
2022/10/09 09:33:21;;;;;;;2.55;1.58;;;20.40;47.00;;;;;;5135122;28;20051;-10
2022/10/09 09:35:58;;;;;;;2.22;1.50;;;20.40;47.10;;;;;;5134607;28;20133;-10
2022/10/09 09:38:23;;;;;;;2.67;1.70;;;20.40;47.00;;;;;;5134563;28;20115;-10
2022/10/09 09:40:49;;;;;;;3.33;1.70;;;20.50;47.00;;;;;;5134637;28;20482;-10
2022/10/09 09:43:24;;;;;;;1.58;1.45;;;20.50;47.00;;;;;;5134469;28;20047;-10
2022/10/09 09:45:55;;;;;;;1.75;1.55;;;20.40;47.00;;;;;;5134458;27;20051;-10
2022/10/09 09:48:41;;;;;;;2.55;1.55;;;20.50;47.10;;;;;;5134415;28;20184;-10
2022/10/09 09:51:17;;;;;;;2.35;1.67;;;20.50;47.00;;;;;;5134506;28;20103;-10
2022/10/09 09:53:50;;;;;;;2.38;1.67;;;20.40;47.00;;;;;;5134447;28;20190;-10
2022/10/09 09:56:17;;;;;;;2.80;1.80;;;20.50;47.10;;;;;;5134772;28;20480;-10
2022/10/09 09:58:44;;;;;;;2.08;1.40;;;20.40;47.00;;;;;;5133683;28;20074;-11
2022/10/09 10:01:21;;;;;;;2.60;1.70;;;20.50;47.10;;;;;;5134274;28;20054;-10
2022/10/09 10:03:50;;;;;;;2.25;1.70;;;20.50;47.00;;;;;;5134743;28;20116;-10
2022/10/09 10:06:40;;;;;;;2.10;1.48;;;20.50;47.00;;;;;;5134306;28;20086;-10
2022/10/09 10:09:17;;;;;;;2.90;2.00;;;20.50;47.10;;;;;;5134058;28;20078;-10
2022/10/09 10:11:56;;;;;;;2.03;1.52;;;20.50;47.10;;;;;;5134057;28;20410;-10
2022/10/09 10:14:22;;;;;;;2.75;1.70;;;20.40;47.10;;;;;;5130410;28;20071;-10
2022/10/09 10:16:50;;;;;;;2.20;1.70;;;20.40;47.10;;;;;;5133598;28;20058;-10
2022/10/09 10:19:30;;;;;;;2.47;1.70;;;20.50;47.10;;;;;;5133638;28;20386;-10
2022/10/09 10:22:00;;;;;;;2.33;1.67;;;20.40;47.10;;;;;;5133983;28;20098;-10
2022/10/09 10:24:34;;;;;;;2.75;1.55;;;20.40;47.00;;;;;;5134459;28;20058;-10
2022/10/09 10:27:26;;;;;;;2.53;1.70;;;20.40;47.00;;;;;;5133846;27;20054;-10
2022/10/09 10:29:57;;;;;;;2.30;1.40;;;20.50;47.10;;;;;;5133847;28;20143;-10
2022/10/09 10:32:32;;;;;;;2.53;2.17;;;20.40;47.10;;;;;;5134129;28;20051;-10
2022/10/09 10:35:15;;;;;;;2.03;1.73;;;20.50;47.10;;;;;;5133902;28;20055;-10
2022/10/09 10:38:05;;;;;;;2.58;1.70;;;20.50;47.10;;;;;;5133608;28;20058;-11
2022/10/09 10:40:54;;;;;;;2.42;1.58;;;20.40;47.00;;;;;;5133677;28;20494;-10
2022/10/09 10:43:33;;;;;;;2.65;1.60;;;20.40;47.10;;;;;;5133822;28;20387;-10
2022/10/09 10:46:11;;;;;;;1.98;1.60;;;20.40;47.10;;;;;;5133951;28;20501;-10
2022/10/09 10:48:40;;;;;;;1.95;1.60;;;20.40;47.00;;;;;;5133701;28;20442;-10
2022/10/09 10:51:33;;;;;;;2.00;1.42;;;20.40;47.00;;;;;;5133544;28;20475;-10
2022/10/09 10:54:10;;;;;;;2.03;1.50;;;20.50;47.00;;;;;;5133235;28;20126;-10
2022/10/09 10:56:52;;;;;;;2.50;1.90;;;20.50;47.00;;;;;;5133141;28;20494;-10
2022/10/09 10:59:29;;;;;;;3.30;1.83;;;20.50;46.90;;;;;;5133132;28;20058;-10
2022/10/09 11:02:19;;;;;;;3.28;2.08;;;20.60;46.80;;;;;;5133679;28;20054;-10
2022/10/09 11:05:00;;;;;;;2.25;1.50;;;20.60;46.80;;;;;;5133349;28;20082;-10
2022/10/09 11:07:44;;;;;;;1.65;1.30;;;20.60;46.80;;;;;;5133469;28;20532;-10
2022/10/09 11:10:51;;;;;;;2.47;1.80;;;20.60;46.70;;;;;;5133417;28;20047;-10
2022/10/09 11:13:26;;;;;;;1.48;1.27;;;20.60;46.70;;;;;;5132677;28;20039;-10
2022/10/09 11:16:11;;;;;;;1.75;1.30;;;20.70;46.70;;;;;;5133466;28;20530;-11
2022/10/09 11:19:04;;;;;;;2.30;1.52;;;20.70;46.60;;;;;;5133917;28;20039;-10
2022/10/09 11:22:11;;;;;;;2.75;1.80;;;20.70;46.60;;;;;;5132958;28;20407;-10
2022/10/09 11:24:45;;;;;;;2.65;1.88;;;20.70;46.60;;;;;;5121756;28;20043;-10
2022/10/09 11:27:22;;;;;;;3.03;1.80;;;20.70;46.50;;;;;;5133171;28;20087;-10
2022/10/09 11:29:57;;;;;;;2.00;1.70;;;20.70;46.50;;;;;;5133284;28;20138;-11
2022/10/09 11:32:43;;;;;;;2.38;1.40;;;20.70;46.60;;;;;;5133392;28;20096;-10
2022/10/09 11:35:18;;;;;;;2.60;1.70;;;20.70;46.60;;;;;;5133024;28;20047;-11
2022/10/09 11:38:10;;;;;;;2.55;1.65;;;20.70;46.60;;;;;;5133429;28;20059;-10
2022/10/09 11:40:40;;;;;;;1.58;1.30;;;20.70;47.20;;;;;;5124126;28;20147;-10
2022/10/09 11:43:19;;;;;;;1.85;1.20;;;20.70;46.60;;;;;;5136441;28;20184;-10
2022/10/09 11:46:00;;;;;;;1.77;1.30;;;20.70;46.60;;;;;;5136548;28;20055;-10
2022/10/09 11:49:14;;;;;;;1.70;1.25;;;20.70;46.60;;;;;;5136692;28;20081;-11
2022/10/09 11:51:50;;;;;;;2.60;1.70;;;20.70;46.60;;;;;;5104429;28;20088;-10
2022/10/09 11:54:18;;;;;;;1.50;1.40;;;20.70;46.60;;;;;;5136610;28;20062;-10
2022/10/09 11:56:57;;;;;;;2.00;1.60;;;20.70;46.60;;;;;;5136276;28;20548;-10
2022/10/09 11:59:29;;;;;;;2.25;1.52;;;20.70;46.50;;;;;;5136365;28;20043;-10
2022/10/09 12:02:00;;;;;;;2.25;1.67;;;20.70;46.50;;;;;;5136391;28;20047;-10
2022/10/09 12:04:31;;;;;;;1.85;1.50;;;20.70;46.50;;;;;;5136312;28;20422;-10
2022/10/09 12:07:00;;;;;;;2.00;1.63;;;20.70;46.50;;;;;;5136054;28;20062;-11
2022/10/09 12:09:27;;;;;;;2.58;1.70;;;20.70;46.50;;;;;;5136413;28;20440;-10
2022/10/09 12:12:05;;;;;;;2.55;1.45;;;20.70;46.40;;;;;;5136037;28;20051;-10
2022/10/09 12:14:34;;;;;;;2.53;1.40;;;20.70;46.40;;;;;;5136485;28;20049;-10
2022/10/09 12:17:13;;;;;;;2.72;2.00;;;20.70;46.40;;;;;;5136206;28;20426;-11
2022/10/09 12:19:40;;;;;;;1.55;1.30;;;20.70;46.50;;;;;;5135866;28;20047;-10
2022/10/09 12:22:15;;;;;;;1.83;1.50;;;20.70;46.50;;;;;;5135898;28;20059;-10
2022/10/09 12:24:53;;;;;;;2.25;1.50;;;20.70;46.50;;;;;;5135867;28;20055;-10
2022/10/09 12:27:35;;;;;;;1.83;1.52;;;20.70;46.50;;;;;;5135911;28;20513;-10
2022/10/09 12:30:15;;;;;;;2.42;1.65;;;20.70;46.50;;;;;;5136085;28;20073;-10
2022/10/09 12:32:46;;;;;;;2.20;1.60;;;20.70;46.50;;;;;;5135798;28;20039;-10
2022/10/09 12:35:30;;;;;;;1.92;1.35;;;20.70;46.50;;;;;;5135686;28;20499;-10
2022/10/09 12:37:56;;;;;;;2.20;1.67;;;20.70;46.50;;;;;;5135547;28;20100;-10
2022/10/09 12:40:28;;;;;;;2.00;1.60;;;20.70;46.50;;;;;;5135581;28;20444;-10
2022/10/09 12:42:55;;;;;;;3.83;1.80;;;20.70;46.60;;;;;;5135578;28;20112;-10
2022/10/09 12:45:28;;;;;;;1.45;1.33;;;20.70;46.60;;;;;;5136039;28;20159;-10
2022/10/09 12:47:55;;;;;;;1.95;1.40;;;20.70;46.50;;;;;;5135656;28;20478;-10
2022/10/09 12:50:32;;;;;;;2.55;1.67;;;20.70;46.60;;;;;;5135281;27;20054;-10
2022/10/09 12:52:59;;;;;;;2.40;1.60;;;20.70;46.60;;;;;;5135269;28;20055;-10
2022/10/09 12:55:28;;;;;;;2.70;1.70;;;20.60;46.60;;;;;;5135405;28;20123;-10
2022/10/09 12:57:59;;;;;;;1.77;1.45;;;20.70;46.60;;;;;;5135149;28;20146;-11
2022/10/09 13:00:25;;;;;;;2.83;1.70;;;20.70;46.60;;;;;;5135625;28;20483;-10
2022/10/09 13:02:50;;;;;;;2.05;1.48;;;20.60;46.60;;;;;;5135427;28;20091;-10
2022/10/09 13:05:16;;;;;;;2.28;1.40;;;20.60;46.70;;;;;;5135228;28;20061;-10
2022/10/09 13:07:49;;;;;;;2.65;1.67;;;20.60;46.70;;;;;;5135196;28;20115;-10